Time;durP1;ratioP1;P1;durP2;ratioP2;P2;SDS_P1;SDS_P2;PMS_P1;PMS_P2;Temp;Humidity;BMP_temperature;BMP_pressure;BME280_temperature;BME280_humidity;BME280_pressure;Samples;Min_cycle;Max_cycle;Signal;HPM_P1;HPM_P2
2022/05/25 00:00:09;;;;;;;5.60;5.10;;;;;;;15.49;73.38;99902.88;104660;1287;22642;-75
2022/05/25 00:02:37;;;;;;;6.70;5.50;;;;;;;15.41;73.60;99902.27;104898;1287;26606;-78
2022/05/25 00:05:08;;;;;;;6.80;4.80;;;;;;;15.42;73.99;99896.39;104783;1287;24242;-79
2022/05/25 00:07:35;;;;;;;7.00;4.80;;;;;;;15.42;74.04;99898.88;104636;1287;22642;-74
2022/05/25 00:10:02;;;;;;;5.20;4.40;;;;;;;15.45;74.02;99894.50;105223;1282;24219;-71
2022/05/25 00:12:29;;;;;;;6.40;5.00;;;;;;;15.44;73.87;99892.05;105422;1282;23946;-75
2022/05/25 00:15:04;;;;;;;7.00;4.60;;;;;;;15.44;74.12;99892.42;105299;1282;25466;-79
2022/05/25 00:17:31;;;;;;;5.30;4.90;;;;;;;15.46;74.40;99896.77;105333;1283;22541;-79
2022/05/25 00:20:00;;;;;;;9.50;5.50;;;;;;;15.45;74.25;99905.51;105259;1282;22557;-77
2022/05/25 00:22:44;;;;;;;5.80;4.80;;;;;;;15.42;74.29;99905.97;105489;1282;24785;-76
2022/05/25 00:25:17;;;;;;;4.90;4.40;;;;;;;15.40;74.49;99909.61;105532;1280;22576;-86
2022/05/25 00:27:44;;;;;;;5.70;5.10;;;;;;;15.33;74.66;99924.58;105573;1282;22744;-77
2022/05/25 00:30:13;;;;;;;6.00;5.10;;;;;;;15.19;75.03;99927.39;105333;1283;22719;-81
2022/05/25 00:32:40;;;;;;;4.80;4.30;;;;;;;15.17;75.38;99922.65;105268;1282;25628;-76
2022/05/25 00:35:11;;;;;;;7.30;4.50;;;;;;;15.13;75.64;99916.95;105305;1283;24237;-79
2022/05/25 00:37:39;;;;;;;6.10;4.70;;;;;;;15.10;75.66;99918.83;105249;1282;25248;-77
2022/05/25 00:40:10;;;;;;;5.70;4.90;;;;;;;15.08;75.92;99918.53;105410;1282;24894;-77
2022/05/25 00:42:38;;;;;;;5.90;4.60;;;;;;;15.05;76.12;99910.64;105428;1282;23407;-77
2022/05/25 00:45:07;;;;;;;5.10;4.30;;;;;;;15.04;76.34;99906.42;105415;1282;22569;-77
2022/05/25 00:47:37;;;;;;;7.00;4.40;;;;;;;15.08;76.16;99902.73;105326;1282;24824;-76
2022/05/25 00:50:08;;;;;;;5.00;4.50;;;;;;;15.10;76.25;99898.60;105305;1282;22553;-77
2022/05/25 00:52:34;;;;;;;7.90;5.00;;;;;;;15.14;76.23;99891.38;105401;1282;22560;-79
2022/05/25 00:55:06;;;;;;;4.50;4.00;;;;;;;15.17;76.46;99890.55;105290;1282;22576;-77
2022/05/25 00:57:42;;;;;;;6.20;4.20;;;;;;;15.21;76.29;99890.79;105322;1282;25266;-74
2022/05/25 01:00:11;;;;;;;4.30;3.90;;;;;;;15.26;76.16;99895.90;105273;1282;25360;-75
2022/05/25 01:02:42;;;;;;;8.80;4.30;;;;;;;15.24;76.10;99898.64;105310;1282;22544;-74
2022/05/25 01:05:12;;;;;;;4.50;4.00;;;;;;;15.22;76.25;99903.65;105563;1282;25214;-73
2022/05/25 01:08:00;;;;;;;7.50;4.40;;;;;;;15.18;76.12;99911.10;105916;1282;22573;-73
2022/05/25 01:10:39;;;;;;;5.20;4.20;;;;;;;15.10;76.42;99911.71;105752;1282;22552;-75
2022/05/25 01:13:40;;;;;;;5.20;4.10;;;;;;;15.08;76.56;99906.30;105114;1284;25557;-75
2022/05/25 01:16:25;;;;;;;5.10;4.40;;;;;;;15.06;76.67;99898.02;105437;1282;23141;-77
2022/05/25 01:19:03;;;;;;;6.00;4.70;;;;;;;15.03;77.03;99894.59;105574;1282;22582;-78
2022/05/25 01:21:48;;;;;;;5.10;4.40;;;;;;;15.11;77.19;99895.39;105521;1283;22641;-76
2022/05/25 01:24:35;;;;;;;5.50;4.50;;;;;;;15.14;77.14;99889.95;105578;1282;23927;-76
2022/05/25 01:27:27;;;;;;;;;;;;;;;15.16;77.04;99890.61;105662;1282;25240;-79
2022/05/25 01:30:12;;;;;;;5.40;4.60;;;;;;;15.18;77.08;99886.27;105300;1282;24248;-81
2022/05/25 01:32:57;;;;;;;6.40;5.10;;;;;;;15.18;77.05;99889.99;105613;1281;25255;-76
2022/05/25 01:35:53;;;;;;;5.40;4.80;;;;;;;15.20;77.25;99889.21;105453;1282;23968;-75
2022/05/25 01:38:25;;;;;;;4.80;4.30;;;;;;;15.21;77.05;99887.23;105427;1282;22794;-75
2022/05/25 01:41:20;;;;;;;6.20;4.70;;;;;;;15.19;77.26;99894.58;105529;1282;23031;-75
2022/05/25 01:43:58;;;;;;;7.10;4.60;;;;;;;15.25;77.32;99897.20;105417;1282;22715;-79
2022/05/25 01:46:31;;;;;;;6.70;5.30;;;;;;;15.24;77.12;99895.25;105445;1282;25461;-74
2022/05/25 01:49:04;;;;;;;5.30;4.80;;;;;;;15.28;77.20;99894.08;105254;1283;26146;-75
2022/05/25 01:51:48;;;;;;;5.20;4.20;;;;;;;15.27;77.26;99894.60;105595;1282;24246;-75
2022/05/25 01:54:19;;;;;;;7.30;5.40;;;;;;;15.25;76.97;99899.33;105485;1282;22541;-76
2022/05/25 01:56:51;;;;;;;7.10;6.30;;;;;;;15.22;77.28;99904.73;105426;1282;24272;-77
2022/05/25 01:59:20;;;;;;;6.70;5.60;;;;;;;15.22;77.58;99899.75;105344;1282;23113;-87
2022/05/25 02:04:19;;;;;;;5.40;4.90;;;;;;;15.26;77.53;99895.55;105304;1282;25297;-79
2022/05/25 02:04:44;;;;;;;5.90;5.30;;;;;;;15.28;77.24;99896.72;105324;1282;24364;-76
2022/05/25 02:07:21;;;;;;;7.10;5.30;;;;;;;15.23;77.19;99899.02;105233;1282;23212;-80
2022/05/25 02:10:11;;;;;;;5.50;5.00;;;;;;;15.24;77.56;99902.21;104765;1288;22503;-77
2022/05/25 02:12:56;;;;;;;7.00;5.40;;;;;;;15.28;77.63;99899.05;104770;1287;22548;-77
2022/05/25 02:15:29;;;;;;;5.70;5.20;;;;;;;15.32;77.69;99896.90;104724;1288;25546;-76
2022/05/25 02:17:58;;;;;;;8.10;5.80;;;;;;;15.33;77.49;99897.92;104578;1288;25384;-76
2022/05/25 02:20:49;;;;;;;5.50;4.90;;;;;;;15.33;77.62;99900.08;104841;1288;24496;-76
2022/05/25 02:23:27;;;;;;;6.30;5.10;;;;;;;15.37;77.60;99902.06;104763;1288;24371;-80
2022/05/25 02:26:08;;;;;;;6.30;5.70;;;;;;;15.42;77.60;99898.54;104786;1288;22567;-72
2022/05/25 02:28:43;;;;;;;6.60;5.60;;;;;;;15.42;77.62;99899.22;105014;1283;22569;-72
2022/05/25 02:31:17;;;;;;;6.10;5.50;;;;;;;15.41;77.48;99907.27;105344;1282;22542;-72
2022/05/25 02:33:49;;;;;;;9.20;5.70;;;;;;;15.38;77.64;99907.55;105381;1282;25580;-73
2022/05/25 02:36:17;;;;;;;5.80;5.20;;;;;;;15.35;77.53;99912.27;105376;1282;22541;-73
2022/05/25 02:38:45;;;;;;;6.40;5.80;;;;;;;15.34;77.53;99919.38;105280;1283;25411;-76
2022/05/25 02:41:25;;;;;;;6.00;5.40;;;;;;;15.27;77.58;99918.41;105389;1282;23946;-73
2022/05/25 02:43:52;;;;;;;6.60;5.50;;;;;;;15.23;77.68;99917.48;105291;1282;25512;-73
2022/05/25 02:46:19;;;;;;;6.30;5.70;;;;;;;15.23;77.87;99914.98;105436;1282;24279;-76
2022/05/25 02:48:46;;;;;;;6.40;5.30;;;;;;;15.24;78.02;99919.73;105385;1282;22560;-81
2022/05/25 02:51:13;;;;;;;7.20;5.90;;;;;;;15.27;78.04;99928.70;105139;1284;22545;-83
2022/05/25 02:53:42;;;;;;;7.00;5.40;;;;;;;15.28;77.78;99933.60;105300;1284;25359;-79
2022/05/25 02:56:09;;;;;;;9.30;6.00;;;;;;;15.19;78.06;99941.03;105148;1284;25256;-79
2022/05/25 02:58:36;;;;;;;6.20;5.50;;;;;;;15.17;78.25;99945.00;105311;1283;22940;-78
2022/05/25 03:01:05;;;;;;;6.50;5.80;;;;;;;15.16;78.26;99943.28;105272;1283;25377;-75
2022/05/25 03:03:33;;;;;;;6.00;5.40;;;;;;;15.20;78.54;99946.68;105238;1284;25272;-77
2022/05/25 03:06:00;;;;;;;5.90;5.30;;;;;;;15.22;78.28;99947.48;105216;1285;25298;-77
2022/05/25 03:08:27;;;;;;;7.10;6.20;;;;;;;15.20;78.28;99946.51;105385;1284;22744;-81
2022/05/25 03:10:54;;;;;;;7.50;6.50;;;;;;;15.19;78.51;99947.22;104753;1288;25444;-81
2022/05/25 03:13:21;;;;;;;9.10;6.70;;;;;;;15.17;78.59;99941.79;104651;1288;25282;-78
2022/05/25 03:15:48;;;;;;;7.10;6.10;;;;;;;15.17;78.66;99947.46;104688;1288;26559;-77
2022/05/25 03:18:15;;;;;;;9.10;6.00;;;;;;;15.21;78.75;99951.80;104907;1288;25266;-77
2022/05/25 03:20:44;;;;;;;7.20;5.40;;;;;;;15.23;78.70;99947.08;105200;1288;24247;-79
2022/05/25 03:23:12;;;;;;;8.40;6.50;;;;;;;15.30;78.71;99949.35;105226;1288;26525;-78
2022/05/25 03:25:38;;;;;;;9.30;7.50;;;;;;;15.33;78.64;99952.80;105347;1288;25280;-79
2022/05/25 03:28:06;;;;;;;8.90;6.90;;;;;;;15.32;78.50;99952.61;105288;1287;22670;-76
2022/05/25 03:30:33;;;;;;;6.00;5.40;;;;;;;15.30;78.47;99951.27;105789;1284;25344;-74
2022/05/25 03:32:59;;;;;;;7.50;6.70;;;;;;;15.22;78.58;99952.62;105854;1282;26636;-76
2022/05/25 03:35:26;;;;;;;7.50;6.20;;;;;;;15.25;78.97;99950.06;105737;1284;24271;-76
2022/05/25 03:37:53;;;;;;;9.40;6.90;;;;;;;15.25;78.76;99952.00;105951;1284;22592;-76
2022/05/25 03:40:20;;;;;;;8.30;7.30;;;;;;;15.25;78.81;99954.48;106190;1284;24271;-79
2022/05/25 03:42:48;;;;;;;8.70;7.70;;;;;;;15.29;78.92;99952.90;105849;1284;26521;-80
2022/05/25 03:45:16;;;;;;;7.90;6.80;;;;;;;15.28;78.69;99953.83;105962;1284;24275;-81
2022/05/25 03:47:47;;;;;;;7.20;6.50;;;;;;;15.29;78.87;99959.82;107276;1284;22566;-79
2022/05/25 03:50:14;;;;;;;7.80;6.90;;;;;;;15.36;79.10;99959.23;108035;1284;22559;-80
2022/05/25 03:52:41;;;;;;;8.10;6.50;;;;;;;15.39;78.80;99961.63;108341;1284;22545;-80
2022/05/25 03:55:08;;;;;;;7.80;7.00;;;;;;;15.31;78.55;99954.79;108438;1284;22572;-80
2022/05/25 03:57:35;;;;;;;8.30;7.40;;;;;;;15.33;78.74;99964.13;108059;1288;22616;-81
2022/05/25 04:00:04;;;;;;;6.90;6.20;;;;;;;15.36;78.87;99960.83;108023;1287;22568;-81
2022/05/25 04:02:31;;;;;;;7.70;6.30;;;;;;;15.34;78.58;99960.36;108124;1287;22723;-86
2022/05/25 04:05:07;;;;;;;6.90;6.30;;;;;;;15.31;78.76;99963.85;108142;1287;22633;-74
2022/05/25 04:07:41;;;;;;;7.70;7.00;;;;;;;15.34;78.83;99962.68;108183;1287;22805;-76
2022/05/25 04:10:12;;;;;;;8.40;7.30;;;;;;;15.40;79.06;99967.61;108237;1287;22710;-74
2022/05/25 04:12:43;;;;;;;9.40;7.70;;;;;;;15.45;79.00;99966.73;107555;1290;24349;-81
2022/05/25 04:15:15;;;;;;;8.00;6.70;;;;;;;15.47;78.95;99965.38;107633;1284;22552;-79
2022/05/25 04:17:42;;;;;;;7.60;6.90;;;;;;;15.47;78.83;99964.89;105995;1288;22704;-82
2022/05/25 04:20:10;;;;;;;7.30;6.40;;;;;;;15.50;78.84;99963.02;104928;1288;22655;-77
2022/05/25 04:22:38;;;;;;;9.20;7.30;;;;;;;15.54;79.02;99958.74;105051;1288;22562;-84
2022/05/25 04:25:10;;;;;;;8.90;7.40;;;;;;;15.66;79.29;99959.21;104331;1297;23894;-86
2022/05/25 04:27:39;;;;;;;9.30;8.40;;;;;;;15.76;79.11;99958.34;104346;1296;22560;-87
2022/05/25 04:30:09;;;;;;;8.50;7.40;;;;;;;15.85;78.99;99960.13;104623;1296;23142;-87
2022/05/25 04:32:36;;;;;;;8.50;7.40;;;;;;;15.90;78.64;99960.13;104485;1297;24351;-87
2022/05/25 04:35:03;;;;;;;7.70;7.00;;;;;;;15.87;78.21;99956.31;104445;1294;23876;-86
2022/05/25 04:37:49;;;;;;;10.40;9.30;;;;;;;15.78;78.25;99956.44;104905;1291;22535;-86
2022/05/25 04:40:32;;;;;;;8.60;7.80;;;;;;;15.83;78.80;99958.73;104853;1291;26582;-86
2022/05/25 04:43:03;;;;;;;12.70;8.30;;;;;;;15.93;78.92;99961.22;105898;1284;24395;-86
2022/05/25 04:45:31;;;;;;;7.50;6.70;;;;;;;15.97;78.48;99956.83;105966;1284;24261;-79
2022/05/25 04:48:01;;;;;;;10.90;7.70;;;;;;;15.95;78.32;99951.02;105441;1285;24043;-82
2022/05/25 04:50:33;;;;;;;8.50;7.70;;;;;;;16.01;78.52;99949.23;104907;1285;26515;-76
2022/05/25 04:53:04;;;;;;;9.90;7.80;;;;;;;16.02;78.26;99942.82;105246;1284;25461;-76
2022/05/25 04:58:25;;;;;;;9.40;8.50;;;;;;;16.06;78.05;99949.23;105420;1284;24292;-78
2022/05/25 05:00:52;;;;;;;8.90;8.10;;;;;;;16.06;78.10;99950.63;106943;1284;24012;-90
2022/05/25 05:03:24;;;;;;;12.00;7.90;;;;;;;16.10;78.26;99956.88;104734;1289;24457;-78
2022/05/25 05:05:53;;;;;;;8.70;7.90;;;;;;;16.19;78.38;99958.52;104891;1287;25258;-78
2022/05/25 05:08:20;;;;;;;9.70;8.80;;;;;;;16.25;78.17;99962.88;104728;1288;24420;-79
2022/05/25 05:10:48;;;;;;;10.90;9.10;;;;;;;16.27;77.95;99960.30;105029;1287;24222;-79
2022/05/25 05:13:16;;;;;;;9.90;8.30;;;;;;;16.28;77.81;99965.75;104975;1287;22546;-81
2022/05/25 05:15:49;;;;;;;10.90;8.30;;;;;;;16.33;78.16;99964.48;105112;1288;22594;-79
2022/05/25 05:18:18;;;;;;;9.20;8.40;;;;;;;16.47;78.33;99961.81;104561;1289;22573;-75
2022/05/25 05:21:09;;;;;;;10.60;9.60;;;;;;;16.57;77.72;99956.45;105058;1284;26584;-79
2022/05/25 05:23:38;;;;;;;10.30;9.20;;;;;;;16.56;77.71;99953.63;105225;1285;22886;-76
2022/05/25 05:26:06;;;;;;;11.60;10.40;;;;;;;16.58;77.64;99961.91;105353;1284;22671;-76
2022/05/25 05:28:37;;;;;;;10.90;9.10;;;;;;;16.61;77.67;99963.57;105231;1284;23000;-75
2022/05/25 05:31:05;;;;;;;11.30;10.10;;;;;;;16.60;77.53;99963.23;105053;1285;25260;-72
2022/05/25 05:33:32;;;;;;;11.70;10.60;;;;;;;16.64;77.65;99968.08;105146;1285;25331;-75
2022/05/25 05:36:03;;;;;;;11.40;10.20;;;;;;;16.68;77.56;99968.07;105438;1284;22549;-78
2022/05/25 05:38:32;;;;;;;14.30;10.40;;;;;;;16.70;77.61;99974.04;104706;1291;22857;-81
2022/05/25 05:40:59;;;;;;;14.10;11.90;;;;;;;16.72;77.46;99972.73;104570;1288;22574;-79
2022/05/25 05:43:27;;;;;;;17.70;12.40;;;;;;;16.71;77.33;99977.23;104631;1288;24514;-81
2022/05/25 05:45:55;;;;;;;19.90;14.00;;;;;;;16.69;77.47;99975.88;104538;1288;24577;-81
2022/05/25 05:48:30;;;;;;;20.90;15.80;;;;;;;16.71;77.65;99973.48;104629;1288;24849;-82
2022/05/25 05:51:05;;;;;;;21.00;15.50;;;;;;;16.72;77.62;99974.52;104783;1287;22645;-82
2022/05/25 05:53:33;;;;;;;25.20;16.90;;;;;;;16.69;77.67;99973.58;104680;1289;24239;-83
2022/05/25 05:56:01;;;;;;;21.80;15.70;;;;;;;16.67;77.78;99978.45;104939;1286;22704;-81
2022/05/25 05:58:28;;;;;;;21.70;16.20;;;;;;;16.68;77.86;99983.56;105119;1284;25266;-79
2022/05/25 06:00:55;;;;;;;22.00;16.80;;;;;;;16.66;77.78;99985.42;105027;1284;25384;-78
2022/05/25 06:03:21;;;;;;;26.20;17.40;;;;;;;16.64;78.03;99988.71;105388;1284;22550;-81
2022/05/25 06:05:48;;;;;;;22.50;15.70;;;;;;;16.65;78.19;99987.96;105491;1284;22556;-83
2022/05/25 06:08:24;;;;;;;22.70;15.70;;;;;;;16.64;78.15;99987.64;105497;1284;24229;-82
2022/05/25 06:10:51;;;;;;;22.70;15.80;;;;;;;16.64;78.30;99992.44;105358;1284;25275;-81
2022/05/25 06:13:19;;;;;;;24.80;17.70;;;;;;;16.67;78.32;99992.50;105323;1284;24239;-83
2022/05/25 06:21:21;;;;;;;;;;;;;;;16.67;78.95;99994.25;104747;1290;24252;-81
2022/05/25 06:23:48;;;;;;;24.50;17.40;;;;;;;16.65;78.71;99993.81;104713;1291;24302;-81
2022/05/25 06:26:17;;;;;;;20.30;16.20;;;;;;;16.62;78.79;99997.86;104681;1291;25843;-82
2022/05/25 06:28:44;;;;;;;23.30;16.40;;;;;;;16.57;78.68;99989.34;104929;1291;23283;-81
2022/05/25 06:31:12;;;;;;;22.60;17.80;;;;;;;16.56;78.78;99989.55;104756;1290;25365;-81
2022/05/25 06:33:39;;;;;;;23.00;18.00;;;;;;;16.55;79.01;99986.54;104713;1288;22510;-81
2022/05/25 06:36:16;;;;;;;19.60;16.10;;;;;;;16.62;79.23;99983.83;104986;1288;25369;-78
2022/05/25 06:38:43;;;;;;;20.20;16.70;;;;;;;16.65;79.11;99979.96;105119;1285;22888;-80
2022/05/25 06:41:10;;;;;;;21.90;15.70;;;;;;;16.71;79.39;99971.01;105466;1284;25412;-81
2022/05/25 06:43:38;;;;;;;20.20;16.70;;;;;;;16.85;79.37;99968.29;105324;1284;22488;-78
2022/05/25 06:46:06;;;;;;;21.40;17.00;;;;;;;17.01;79.38;99964.25;105286;1284;24318;-80
2022/05/25 06:48:50;;;;;;;20.90;17.30;;;;;;;17.18;79.13;99964.27;105207;1285;24063;-81
2022/05/25 06:51:20;;;;;;;20.10;16.50;;;;;;;17.30;78.97;99963.75;104921;1285;24205;-78
2022/05/25 06:53:49;;;;;;;23.70;14.00;;;;;;;17.41;78.89;99964.85;105478;1284;24189;-80
2022/05/25 06:56:22;;;;;;;19.60;14.10;;;;;;;17.51;78.57;99953.71;105311;1285;23932;-78
2022/05/25 06:58:49;;;;;;;19.10;15.40;;;;;;;17.63;78.61;99953.20;105024;1284;25271;-80
2022/05/25 07:01:16;;;;;;;19.60;14.60;;;;;;;17.82;78.39;99960.91;105066;1288;22635;-81
2022/05/25 07:03:44;;;;;;;20.20;15.00;;;;;;;17.97;78.10;99966.98;105193;1284;22487;-80
2022/05/25 07:06:13;;;;;;;17.30;14.30;;;;;;;18.04;77.77;99975.90;105331;1284;24091;-77
2022/05/25 07:08:41;;;;;;;15.80;11.90;;;;;;;18.05;77.14;99975.70;105381;1284;23940;-80
2022/05/25 07:11:11;;;;;;;14.20;11.70;;;;;;;18.00;77.05;99980.04;105172;1285;25553;-79
2022/05/25 07:13:39;;;;;;;11.60;10.40;;;;;;;18.00;77.03;99975.90;105232;1285;22550;-80
2022/05/25 07:16:09;;;;;;;17.10;12.10;;;;;;;18.05;77.03;99980.32;105295;1284;25682;-82
2022/05/25 07:18:36;;;;;;;12.70;11.40;;;;;;;18.09;76.80;99986.71;105250;1285;25497;-82
2022/05/25 07:21:12;;;;;;;14.30;12.70;;;;;;;18.11;76.86;99986.29;105582;1284;22546;-80
2022/05/25 07:23:41;;;;;;;13.80;12.10;;;;;;;18.15;76.83;99986.30;106026;1284;24256;-80
2022/05/25 07:26:09;;;;;;;16.10;12.00;;;;;;;18.09;76.16;99988.88;105639;1285;22539;-80
2022/05/25 07:28:37;;;;;;;13.50;12.10;;;;;;;18.01;75.87;99988.51;105523;1284;23013;-81
2022/05/25 07:31:22;;;;;;;14.20;12.80;;;;;;;17.85;76.15;99991.91;105708;1284;22620;-79
2022/05/25 07:34:20;;;;;;;16.30;13.80;;;;;;;17.77;76.77;99987.86;106331;1284;22818;-83
2022/05/25 07:36:54;;;;;;;12.30;11.10;;;;;;;17.80;77.05;99990.38;105713;1284;23980;-82
2022/05/25 07:39:27;;;;;;;13.70;11.80;;;;;;;17.87;76.86;99992.20;105650;1284;23300;-80
2022/05/25 07:41:57;;;;;;;14.70;12.00;;;;;;;17.90;76.66;99989.56;106688;1285;22534;-77
2022/05/25 07:44:30;;;;;;;14.30;12.50;;;;;;;17.92;76.83;99984.13;106784;1284;22489;-80
2022/05/25 07:46:58;;;;;;;15.00;13.30;;;;;;;17.96;76.58;99990.70;106602;1285;22551;-80
2022/05/25 07:49:25;;;;;;;13.60;11.90;;;;;;;18.02;76.56;99992.21;105691;1284;22590;-82
2022/05/25 07:51:53;;;;;;;12.60;11.30;;;;;;;18.15;76.69;99993.61;105503;1284;24672;-82
2022/05/25 07:54:20;;;;;;;11.70;10.50;;;;;;;18.28;76.47;99991.02;105912;1284;22694;-78
2022/05/25 07:56:48;;;;;;;13.50;12.20;;;;;;;18.41;76.31;99995.79;106688;1284;22603;-83
2022/05/25 07:59:16;;;;;;;15.50;12.90;;;;;;;18.55;76.24;99999.39;106383;1285;25827;-78
2022/05/25 08:07:29;;;;;;;15.50;13.90;;;;;;;18.72;74.91;100003.72;105389;1284;23866;-83
2022/05/25 08:10:08;;;;;;;15.30;13.80;;;;;;;18.66;74.94;100008.11;105204;1284;22800;-82
2022/05/25 08:12:39;;;;;;;17.40;14.90;;;;;;;18.68;75.06;100008.04;105331;1286;25262;-80
2022/05/25 08:15:08;;;;;;;16.60;14.90;;;;;;;18.75;75.04;100012.14;105530;1285;23620;-81
2022/05/25 08:17:35;;;;;;;19.00;15.20;;;;;;;18.82;75.08;100012.91;105250;1285;22738;-79
2022/05/25 08:20:04;;;;;;;18.80;16.60;;;;;;;18.82;74.80;100021.96;105009;1285;22493;-79
2022/05/25 08:22:33;;;;;;;18.20;16.20;;;;;;;18.65;74.09;100022.81;104611;1289;23459;-78
2022/05/25 08:25:00;;;;;;;19.20;17.30;;;;;;;18.51;74.36;100022.20;104605;1288;26796;-82
2022/05/25 08:27:27;;;;;;;19.60;17.50;;;;;;;18.43;74.64;100020.45;104730;1288;24273;-81
2022/05/25 08:29:53;;;;;;;21.90;19.60;;;;;;;18.37;74.83;100016.66;105068;1288;25595;-80
2022/05/25 08:32:21;;;;;;;21.70;18.20;;;;;;;18.27;74.99;100011.21;104071;1294;26753;-80
2022/05/25 08:34:48;;;;;;;21.50;19.20;;;;;;;18.12;75.26;100012.98;104053;1294;22882;-82
2022/05/25 08:37:15;;;;;;;24.50;19.30;;;;;;;18.00;75.66;100011.72;104147;1294;24342;-83
2022/05/25 08:39:42;;;;;;;24.60;20.70;;;;;;;17.93;76.01;100011.00;104007;1294;25687;-81
2022/05/25 08:42:16;;;;;;;25.70;22.00;;;;;;;17.96;76.39;100009.98;104727;1288;25256;-81
2022/05/25 08:44:46;;;;;;;26.50;22.40;;;;;;;18.01;76.37;100009.72;104409;1288;26545;-80
2022/05/25 08:47:14;;;;;;;25.80;21.10;;;;;;;18.09;76.57;100011.13;104186;1288;22573;-81
2022/05/25 08:49:46;;;;;;;26.80;21.90;;;;;;;18.16;76.43;100017.61;104708;1288;22581;-81
2022/05/25 08:52:32;;;;;;;27.60;22.30;;;;;;;18.17;76.21;100022.20;105249;1284;22908;-81
2022/05/25 08:55:02;;;;;;;30.70;25.70;;;;;;;18.02;75.79;100022.14;105282;1283;25257;-81
2022/05/25 08:57:45;;;;;;;35.90;28.00;;;;;;;17.90;76.16;100026.80;104936;1284;24313;-79
2022/05/25 09:00:17;;;;;;;37.20;28.90;;;;;;;17.74;76.23;100032.30;105111;1286;24284;-81
2022/05/25 09:03:00;;;;;;;34.90;28.20;;;;;;;17.65;76.28;100042.50;105083;1284;24439;-79
2022/05/25 09:06:05;;;;;;;33.10;26.60;;;;;;;17.55;76.79;100050.39;105219;1284;22647;-81
2022/05/25 09:08:59;;;;;;;34.90;27.40;;;;;;;17.47;77.26;100058.04;105097;1284;22867;-82
2022/05/25 09:11:50;;;;;;;35.20;28.50;;;;;;;17.49;77.58;100061.50;104979;1285;22496;-81
2022/05/25 09:14:52;;;;;;;41.70;30.90;;;;;;;17.48;77.62;100059.25;105042;1284;25504;-80
2022/05/25 09:17:29;;;;;;;40.80;30.10;;;;;;;17.41;77.93;100061.86;105168;1285;22565;-81
2022/05/25 09:19:56;;;;;;;39.80;29.40;;;;;;;17.37;77.93;100065.23;105297;1284;22758;-81
2022/05/25 09:22:25;;;;;;;42.60;32.00;;;;;;;17.31;77.99;100074.00;105215;1285;23975;-81
2022/05/25 09:24:56;;;;;;;47.60;35.60;;;;;;;17.24;78.28;100074.15;105341;1284;22540;-79
2022/05/25 09:27:46;;;;;;;41.30;32.20;;;;;;;17.14;78.38;100065.48;105051;1285;25222;-79
2022/05/25 09:30:15;;;;;;;41.50;32.10;;;;;;;17.13;78.69;100069.30;105246;1284;22788;-82
2022/05/25 09:32:52;;;;;;;40.50;32.70;;;;;;;17.08;78.86;100070.71;105254;1284;22579;-81
2022/05/25 09:35:48;;;;;;;46.20;36.90;;;;;;;17.02;79.38;100071.28;105276;1284;22560;-81
2022/05/25 09:38:54;;;;;;;45.80;36.40;;;;;;;16.94;79.59;100073.20;105460;1284;22536;-82
2022/05/25 09:41:25;;;;;;;40.80;31.60;;;;;;;16.87;80.07;100075.45;105576;1284;22636;-81
2022/05/25 09:43:56;;;;;;;36.70;30.10;;;;;;;16.78;80.08;100073.48;105423;1285;22543;-82
2022/05/25 09:46:30;;;;;;;35.60;29.70;;;;;;;16.73;80.09;100074.75;105240;1284;23641;-81
2022/05/25 09:49:47;;;;;;;42.00;34.60;;;;;;;16.73;80.46;100078.48;105230;1284;23749;-87
2022/05/25 09:52:15;;;;;;;36.30;31.40;;;;;;;16.72;80.49;100073.52;105245;1284;22557;-83
2022/05/25 09:58:09;;;;;;;33.10;28.10;;;;;;;16.75;80.26;100073.79;105726;1285;25403;-81
2022/05/25 10:00:36;;;;;;;33.40;28.40;;;;;;;16.77;80.13;100073.00;105776;1287;22561;-81
2022/05/25 10:03:32;;;;;;;32.50;28.60;;;;;;;16.81;80.05;100072.11;106790;1284;24110;-80
2022/05/25 10:06:01;;;;;;;30.70;26.20;;;;;;;16.85;79.88;100069.45;107086;1284;22603;-80
2022/05/25 10:08:36;;;;;;;30.90;25.90;;;;;;;16.94;80.04;100067.32;107026;1284;23023;-80
2022/05/25 10:11:29;;;;;;;26.70;23.30;;;;;;;17.10;79.75;100072.05;108076;1284;22781;-79
2022/05/25 10:14:13;;;;;;;24.10;21.60;;;;;;;17.18;79.41;100070.63;107452;1284;22552;-79
2022/05/25 10:16:41;;;;;;;24.20;21.70;;;;;;;17.19;79.10;100071.84;107288;1284;24252;-79
2022/05/25 10:19:12;;;;;;;22.30;19.90;;;;;;;17.16;78.88;100065.92;107506;1284;22547;-81
2022/05/25 10:21:51;;;;;;;21.50;19.00;;;;;;;17.19;78.91;100061.52;107387;1284;22565;-80
2022/05/25 10:24:46;;;;;;;17.90;16.20;;;;;;;17.29;78.39;100063.45;107702;1284;22619;-80
2022/05/25 10:27:40;;;;;;;16.60;14.90;;;;;;;17.40;77.76;100067.61;106659;1284;25510;-81
2022/05/25 10:36:49;;;;;;;;;;;;;;;17.48;75.68;100061.57;104649;1291;23209;-80
2022/05/25 10:39:24;;;;;;;15.10;13.80;;;;;;;17.51;75.85;100066.79;104646;1290;24425;-81
2022/05/25 10:42:17;;;;;;;14.60;13.10;;;;;;;17.54;75.01;100065.20;104620;1290;22843;-80
2022/05/25 10:45:10;;;;;;;11.50;10.30;;;;;;;17.47;74.54;100061.44;104576;1290;22787;-80
2022/05/25 10:48:07;;;;;;;13.30;11.90;;;;;;;17.42;74.19;100055.06;104442;1290;221381;-80
2022/05/25 10:51:05;;;;;;;10.80;9.80;;;;;;;17.43;74.07;100051.81;104432;1289;25651;-80
2022/05/25 10:57:27;;;;;;;10.80;9.80;;;;;;;17.25;73.69;100056.30;105161;1285;24257;-80
2022/05/25 11:00:19;;;;;;;11.90;10.90;;;;;;;17.14;74.09;100060.69;104403;1291;22653;-81
2022/05/25 11:02:55;;;;;;;9.00;8.20;;;;;;;17.09;74.04;100059.64;105340;1284;25374;-79
2022/05/25 11:05:31;;;;;;;8.50;7.70;;;;;;;16.99;74.25;100056.80;105388;1284;24280;-80
2022/05/25 11:08:25;;;;;;;9.20;8.40;;;;;;;16.95;74.42;100058.05;105241;1284;22564;-79
2022/05/25 11:11:51;;;;;;;8.00;7.30;;;;;;;16.92;74.53;100056.21;105275;1284;23960;-83
2022/05/25 11:14:36;;;;;;;7.30;6.60;;;;;;;16.78;74.55;100059.77;104464;1291;25661;-80
2022/05/25 11:17:21;;;;;;;7.70;7.00;;;;;;;16.68;74.87;100062.51;105282;1284;25562;-81
2022/05/25 11:20:00;;;;;;;9.50;7.80;;;;;;;16.63;74.60;100069.29;105391;1284;24326;-83
2022/05/25 11:22:53;;;;;;;9.60;7.40;;;;;;;16.55;74.59;100084.14;106114;1284;22557;-80
2022/05/25 11:25:45;;;;;;;7.70;7.00;;;;;;;16.43;74.77;100090.11;105808;1284;25273;-80
2022/05/25 11:28:17;;;;;;;9.20;6.00;;;;;;;16.39;74.62;100096.83;105741;1284;23242;-80
2022/05/25 11:31:03;;;;;;;6.80;6.20;;;;;;;16.38;74.35;100105.79;105967;1284;23230;-78
2022/05/25 11:33:52;;;;;;;6.90;6.20;;;;;;;16.33;74.46;100109.33;106234;1284;22572;-79
2022/05/25 11:37:13;;;;;;;7.10;6.40;;;;;;;16.29;74.27;100106.65;105581;1284;25333;-82
2022/05/25 11:39:49;;;;;;;7.20;6.10;;;;;;;16.31;74.31;100104.61;105445;1284;24242;-81
2022/05/25 11:43:13;;;;;;;6.90;6.30;;;;;;;16.34;74.30;100099.36;105289;1284;22587;-78
2022/05/25 11:46:07;;;;;;;6.90;6.30;;;;;;;16.34;74.05;100112.48;105228;1285;22538;-78
2022/05/25 11:49:32;;;;;;;6.80;5.70;;;;;;;16.29;73.69;100120.14;105324;1284;22557;-80
2022/05/25 11:52:42;;;;;;;6.50;5.20;;;;;;;16.22;73.82;100127.33;104567;1290;24316;-80
2022/05/25 11:55:20;;;;;;;7.10;6.20;;;;;;;16.18;73.65;100126.58;104520;1291;23506;-81
2022/05/25 11:58:02;;;;;;;5.80;5.30;;;;;;;16.16;73.80;100131.30;104568;1290;25274;-83
2022/05/25 12:01:08;;;;;;;7.20;5.40;;;;;;;16.13;73.88;100134.76;104382;1290;22617;-78
2022/05/25 12:03:45;;;;;;;6.40;5.80;;;;;;;16.10;73.84;100138.05;104648;1290;22634;-81
2022/05/25 12:06:21;;;;;;;8.10;6.60;;;;;;;16.04;73.77;100135.61;104480;1294;23459;-80
2022/05/25 12:08:54;;;;;;;6.20;5.60;;;;;;;16.01;74.14;100135.00;104702;1290;22558;-80
2022/05/25 12:12:03;;;;;;;4.60;4.20;;;;;;;15.92;74.03;100133.34;105211;1284;25463;-80
2022/05/25 12:18:33;;;;;;;8.40;6.70;;;;;;;15.73;75.20;100136.64;105290;1284;22588;-82
2022/05/25 12:21:04;;;;;;;8.40;6.40;;;;;;;15.66;75.54;100137.24;105256;1284;22864;-81
2022/05/25 12:23:36;;;;;;;7.50;6.40;;;;;;;15.63;75.65;100143.77;105421;1284;22551;-81